sensor_id;sensor_type;location;lat;lon;timestamp;temperature;humidity
25128;DHT22;13107;51.304;6.866;2022-10-31T00:05:20;11.30;99.90
25128;DHT22;13107;51.304;6.866;2022-10-31T00:09:22;11.40;99.90
25128;DHT22;13107;51.304;6.866;2022-10-31T00:13:23;11.40;99.90
25128;DHT22;13107;51.304;6.866;2022-10-31T00:17:25;11.40;99.90
25128;DHT22;13107;51.304;6.866;2022-10-31T00:21:28;11.50;99.90
25128;DHT22;13107;51.304;6.866;2022-10-31T00:25:34;11.50;99.90
25128;DHT22;13107;51.304;6.866;2022-10-31T00:29:36;11.60;99.90
25128;DHT22;13107;51.304;6.866;2022-10-31T00:33:39;11.60;99.90
25128;DHT22;13107;51.304;6.866;2022-10-31T00:37:41;11.70;99.90
25128;DHT22;13107;51.304;6.866;2022-10-31T00:41:42;11.70;99.90
25128;DHT22;13107;51.304;6.866;2022-10-31T00:45:44;11.80;99.90
25128;DHT22;13107;51.304;6.866;2022-10-31T00:49:46;11.80;99.90
25128;DHT22;13107;51.304;6.866;2022-10-31T00:53:47;11.80;99.90
25128;DHT22;13107;51.304;6.866;2022-10-31T00:57:49;11.80;99.90
25128;DHT22;13107;51.304;6.866;2022-10-31T01:01:51;11.80;99.90
25128;DHT22;13107;51.304;6.866;2022-10-31T01:06:10;11.90;99.90
25128;DHT22;13107;51.304;6.866;2022-10-31T01:10:13;11.90;99.90
25128;DHT22;13107;51.304;6.866;2022-10-31T01:14:14;11.90;99.90
25128;DHT22;13107;51.304;6.866;2022-10-31T01:18:16;12.00;99.90
25128;DHT22;13107;51.304;6.866;2022-10-31T01:22:18;12.00;99.90
25128;DHT22;13107;51.304;6.866;2022-10-31T01:26:22;12.00;99.90
25128;DHT22;13107;51.304;6.866;2022-10-31T01:30:24;11.90;99.90
25128;DHT22;13107;51.304;6.866;2022-10-31T01:34:26;11.90;99.90
25128;DHT22;13107;51.304;6.866;2022-10-31T01:38:27;11.80;99.90
25128;DHT22;13107;51.304;6.866;2022-10-31T01:42:29;11.80;99.90
25128;DHT22;13107;51.304;6.866;2022-10-31T01:46:35;11.80;99.90
25128;DHT22;13107;51.304;6.866;2022-10-31T01:50:38;11.80;99.90
25128;DHT22;13107;51.304;6.866;2022-10-31T01:54:44;11.80;99.90
25128;DHT22;13107;51.304;6.866;2022-10-31T01:58:47;11.70;99.90
25128;DHT22;13107;51.304;6.866;2022-10-31T02:02:49;11.70;99.90
25128;DHT22;13107;51.304;6.866;2022-10-31T02:06:57;11.50;99.90
25128;DHT22;13107;51.304;6.866;2022-10-31T02:11:01;11.40;99.90
25128;DHT22;13107;51.304;6.866;2022-10-31T02:15:04;11.30;99.90
25128;DHT22;13107;51.304;6.866;2022-10-31T02:19:08;11.20;99.90
25128;DHT22;13107;51.304;6.866;2022-10-31T02:32:00;11.10;99.90
25128;DHT22;13107;51.304;6.866;2022-10-31T02:40:35;10.90;99.90
25128;DHT22;13107;51.304;6.866;2022-10-31T02:44:45;10.80;99.90
25128;DHT22;13107;51.304;6.866;2022-10-31T02:48:54;10.90;99.90
25128;DHT22;13107;51.304;6.866;2022-10-31T02:52:59;11.00;99.90
25128;DHT22;13107;51.304;6.866;2022-10-31T02:57:04;11.00;99.90
25128;DHT22;13107;51.304;6.866;2022-10-31T03:01:20;11.10;99.90
25128;DHT22;13107;51.304;6.866;2022-10-31T03:18:00;11.30;99.90
25128;DHT22;13107;51.304;6.866;2022-10-31T03:22:24;11.30;99.90
25128;DHT22;13107;51.304;6.866;2022-10-31T03:26:27;11.30;99.90
25128;DHT22;13107;51.304;6.866;2022-10-31T03:30:33;11.20;99.90
25128;DHT22;13107;51.304;6.866;2022-10-31T03:34:38;11.20;99.90
25128;DHT22;13107;51.304;6.866;2022-10-31T03:38:42;11.10;99.90
25128;DHT22;13107;51.304;6.866;2022-10-31T03:42:51;11.00;99.90
25128;DHT22;13107;51.304;6.866;2022-10-31T03:46:54;10.90;99.90
25128;DHT22;13107;51.304;6.866;2022-10-31T03:55:20;10.80;99.90
25128;DHT22;13107;51.304;6.866;2022-10-31T03:59:36;10.70;99.90
25128;DHT22;13107;51.304;6.866;2022-10-31T04:03:41;10.60;99.90
25128;DHT22;13107;51.304;6.866;2022-10-31T04:07:46;10.50;99.90
25128;DHT22;13107;51.304;6.866;2022-10-31T04:11:51;10.50;99.90
25128;DHT22;13107;51.304;6.866;2022-10-31T04:15:55;10.50;99.90
25128;DHT22;13107;51.304;6.866;2022-10-31T04:19:59;10.30;99.90
25128;DHT22;13107;51.304;6.866;2022-10-31T04:24:01;10.30;99.90
25128;DHT22;13107;51.304;6.866;2022-10-31T04:28:03;10.30;99.90
25128;DHT22;13107;51.304;6.866;2022-10-31T04:32:05;10.20;99.90
25128;DHT22;13107;51.304;6.866;2022-10-31T04:36:07;10.20;99.90
25128;DHT22;13107;51.304;6.866;2022-10-31T04:40:09;10.20;99.90
25128;DHT22;13107;51.304;6.866;2022-10-31T04:44:11;10.20;99.90
25128;DHT22;13107;51.304;6.866;2022-10-31T04:48:13;10.20;99.90
25128;DHT22;13107;51.304;6.866;2022-10-31T04:52:15;10.20;99.90
25128;DHT22;13107;51.304;6.866;2022-10-31T04:56:16;10.20;99.90
25128;DHT22;13107;51.304;6.866;2022-10-31T05:00:20;10.20;99.90
25128;DHT22;13107;51.304;6.866;2022-10-31T05:04:21;10.20;99.90
25128;DHT22;13107;51.304;6.866;2022-10-31T05:08:23;10.20;99.90
25128;DHT22;13107;51.304;6.866;2022-10-31T05:12:25;10.10;99.90
25128;DHT22;13107;51.304;6.866;2022-10-31T05:16:28;10.10;99.90
25128;DHT22;13107;51.304;6.866;2022-10-31T05:20:30;10.00;99.90
25128;DHT22;13107;51.304;6.866;2022-10-31T05:24:32;10.00;99.90
25128;DHT22;13107;51.304;6.866;2022-10-31T05:28:33;10.10;99.90
25128;DHT22;13107;51.304;6.866;2022-10-31T05:32:43;10.00;99.90
25128;DHT22;13107;51.304;6.866;2022-10-31T05:36:45;10.10;99.90
25128;DHT22;13107;51.304;6.866;2022-10-31T05:40:46;10.10;99.90
25128;DHT22;13107;51.304;6.866;2022-10-31T05:44:48;10.10;99.90
25128;DHT22;13107;51.304;6.866;2022-10-31T05:48:49;10.10;99.90
25128;DHT22;13107;51.304;6.866;2022-10-31T05:53:00;10.10;99.90
25128;DHT22;13107;51.304;6.866;2022-10-31T05:57:02;10.10;99.90
25128;DHT22;13107;51.304;6.866;2022-10-31T06:01:03;10.00;99.90
25128;DHT22;13107;51.304;6.866;2022-10-31T06:05:05;10.00;99.90
25128;DHT22;13107;51.304;6.866;2022-10-31T06:09:07;10.00;99.90
25128;DHT22;13107;51.304;6.866;2022-10-31T06:13:09;10.00;99.90
25128;DHT22;13107;51.304;6.866;2022-10-31T06:17:11;10.00;99.90
25128;DHT22;13107;51.304;6.866;2022-10-31T06:21:12;10.00;99.90
25128;DHT22;13107;51.304;6.866;2022-10-31T06:25:19;10.00;99.90
25128;DHT22;13107;51.304;6.866;2022-10-31T06:29:21;10.00;99.90
25128;DHT22;13107;51.304;6.866;2022-10-31T06:33:22;10.00;99.90
25128;DHT22;13107;51.304;6.866;2022-10-31T06:37:24;9.90;99.90
25128;DHT22;13107;51.304;6.866;2022-10-31T06:41:26;10.00;99.90
25128;DHT22;13107;51.304;6.866;2022-10-31T06:45:28;10.00;99.90
25128;DHT22;13107;51.304;6.866;2022-10-31T06:49:29;10.00;99.90
25128;DHT22;13107;51.304;6.866;2022-10-31T06:53:31;10.00;99.90
25128;DHT22;13107;51.304;6.866;2022-10-31T06:57:33;10.00;99.90
25128;DHT22;13107;51.304;6.866;2022-10-31T07:01:34;10.10;99.90
25128;DHT22;13107;51.304;6.866;2022-10-31T07:05:36;10.10;99.90
25128;DHT22;13107;51.304;6.866;2022-10-31T07:09:38;10.10;99.90
25128;DHT22;13107;51.304;6.866;2022-10-31T07:13:40;10.10;99.90
25128;DHT22;13107;51.304;6.866;2022-10-31T07:17:42;10.20;99.90
25128;DHT22;13107;51.304;6.866;2022-10-31T07:21:44;10.30;99.90
25128;DHT22;13107;51.304;6.866;2022-10-31T07:25:45;10.40;99.90
25128;DHT22;13107;51.304;6.866;2022-10-31T07:29:47;10.50;99.90
25128;DHT22;13107;51.304;6.866;2022-10-31T07:33:48;10.50;99.90
25128;DHT22;13107;51.304;6.866;2022-10-31T07:37:51;10.60;99.90
25128;DHT22;13107;51.304;6.866;2022-10-31T07:41:53;10.60;99.90
25128;DHT22;13107;51.304;6.866;2022-10-31T07:45:55;10.70;99.90
25128;DHT22;13107;51.304;6.866;2022-10-31T07:49:56;10.70;99.90
25128;DHT22;13107;51.304;6.866;2022-10-31T07:53:58;10.80;99.90
25128;DHT22;13107;51.304;6.866;2022-10-31T07:58:08;10.90;99.90
25128;DHT22;13107;51.304;6.866;2022-10-31T08:02:10;11.00;99.90
25128;DHT22;13107;51.304;6.866;2022-10-31T08:06:11;11.10;99.90
25128;DHT22;13107;51.304;6.866;2022-10-31T08:10:13;11.20;99.90
25128;DHT22;13107;51.304;6.866;2022-10-31T08:14:14;11.30;99.90
25128;DHT22;13107;51.304;6.866;2022-10-31T08:18:16;11.50;99.90
25128;DHT22;13107;51.304;6.866;2022-10-31T08:22:18;11.60;99.90
25128;DHT22;13107;51.304;6.866;2022-10-31T08:26:20;11.90;99.90
25128;DHT22;13107;51.304;6.866;2022-10-31T08:30:25;12.10;99.90
25128;DHT22;13107;51.304;6.866;2022-10-31T08:34:27;12.30;99.90
25128;DHT22;13107;51.304;6.866;2022-10-31T08:38:28;12.50;99.90
25128;DHT22;13107;51.304;6.866;2022-10-31T08:42:30;12.70;99.90
25128;DHT22;13107;51.304;6.866;2022-10-31T08:46:31;12.90;99.90
25128;DHT22;13107;51.304;6.866;2022-10-31T08:50:35;13.10;99.90
25128;DHT22;13107;51.304;6.866;2022-10-31T08:54:37;13.30;99.90
25128;DHT22;13107;51.304;6.866;2022-10-31T08:58:38;13.50;99.90
25128;DHT22;13107;51.304;6.866;2022-10-31T09:02:41;13.60;99.90
25128;DHT22;13107;51.304;6.866;2022-10-31T09:06:42;13.80;99.90
25128;DHT22;13107;51.304;6.866;2022-10-31T09:11:04;13.90;99.90
25128;DHT22;13107;51.304;6.866;2022-10-31T09:15:08;14.10;99.90
25128;DHT22;13107;51.304;6.866;2022-10-31T09:19:10;14.20;99.90
25128;DHT22;13107;51.304;6.866;2022-10-31T09:23:18;14.40;99.90
25128;DHT22;13107;51.304;6.866;2022-10-31T09:27:20;14.70;99.90
25128;DHT22;13107;51.304;6.866;2022-10-31T09:31:22;14.90;99.90
25128;DHT22;13107;51.304;6.866;2022-10-31T09:35:24;15.00;99.90
25128;DHT22;13107;51.304;6.866;2022-10-31T09:39:26;15.10;99.90
25128;DHT22;13107;51.304;6.866;2022-10-31T09:43:44;15.20;99.90
25128;DHT22;13107;51.304;6.866;2022-10-31T09:48:08;15.40;99.90
25128;DHT22;13107;51.304;6.866;2022-10-31T09:52:23;15.60;99.90
25128;DHT22;13107;51.304;6.866;2022-10-31T09:56:26;15.90;99.90
25128;DHT22;13107;51.304;6.866;2022-10-31T10:00:29;16.00;99.90
25128;DHT22;13107;51.304;6.866;2022-10-31T10:04:42;16.00;99.90
25128;DHT22;13107;51.304;6.866;2022-10-31T10:08:46;16.00;99.90
25128;DHT22;13107;51.304;6.866;2022-10-31T10:22:35;16.00;99.90
25128;DHT22;13107;51.304;6.866;2022-10-31T10:27:14;16.00;99.90
25128;DHT22;13107;51.304;6.866;2022-10-31T10:31:31;16.10;99.90
25128;DHT22;13107;51.304;6.866;2022-10-31T10:39:38;16.50;99.90
25128;DHT22;13107;51.304;6.866;2022-10-31T10:43:42;16.70;99.90
25128;DHT22;13107;51.304;6.866;2022-10-31T10:47:48;16.80;99.90
25128;DHT22;13107;51.304;6.866;2022-10-31T11:00:44;17.00;99.90
25128;DHT22;13107;51.304;6.866;2022-10-31T11:04:53;17.10;99.90
25128;DHT22;13107;51.304;6.866;2022-10-31T11:08:55;17.10;99.90
25128;DHT22;13107;51.304;6.866;2022-10-31T11:13:04;17.30;99.90
25128;DHT22;13107;51.304;6.866;2022-10-31T11:17:11;17.40;99.90
25128;DHT22;13107;51.304;6.866;2022-10-31T11:21:23;17.60;99.90
25128;DHT22;13107;51.304;6.866;2022-10-31T11:25:26;17.90;99.90
25128;DHT22;13107;51.304;6.866;2022-10-31T11:29:28;18.10;99.90
25128;DHT22;13107;51.304;6.866;2022-10-31T11:33:59;18.20;99.90
25128;DHT22;13107;51.304;6.866;2022-10-31T11:38:04;18.40;99.90
25128;DHT22;13107;51.304;6.866;2022-10-31T11:42:07;18.60;99.90
25128;DHT22;13107;51.304;6.866;2022-10-31T11:46:11;18.60;99.90
25128;DHT22;13107;51.304;6.866;2022-10-31T11:50:24;18.80;99.90
25128;DHT22;13107;51.304;6.866;2022-10-31T11:54:30;19.00;99.90
25128;DHT22;13107;51.304;6.866;2022-10-31T11:58:33;19.10;99.90
25128;DHT22;13107;51.304;6.866;2022-10-31T12:02:35;19.00;99.90
25128;DHT22;13107;51.304;6.866;2022-10-31T12:06:38;19.00;99.90
25128;DHT22;13107;51.304;6.866;2022-10-31T12:19:46;19.00;99.90
25128;DHT22;13107;51.304;6.866;2022-10-31T12:29:02;19.00;99.90
25128;DHT22;13107;51.304;6.866;2022-10-31T12:33:17;19.00;99.90
25128;DHT22;13107;51.304;6.866;2022-10-31T12:45:58;19.20;99.90
25128;DHT22;13107;51.304;6.866;2022-10-31T12:58:36;19.30;99.90
25128;DHT22;13107;51.304;6.866;2022-10-31T13:07:04;19.30;99.90
25128;DHT22;13107;51.304;6.866;2022-10-31T13:11:22;19.40;99.90
25128;DHT22;13107;51.304;6.866;2022-10-31T13:15:27;19.30;99.90
25128;DHT22;13107;51.304;6.866;2022-10-31T13:19:36;19.40;99.90
25128;DHT22;13107;51.304;6.866;2022-10-31T13:23:39;19.50;99.90
25128;DHT22;13107;51.304;6.866;2022-10-31T13:27:58;19.50;99.90
25128;DHT22;13107;51.304;6.866;2022-10-31T13:32:04;19.30;99.90
25128;DHT22;13107;51.304;6.866;2022-10-31T13:36:19;19.20;99.90
25128;DHT22;13107;51.304;6.866;2022-10-31T13:44:32;19.30;99.90
25128;DHT22;13107;51.304;6.866;2022-10-31T13:48:40;19.40;99.90
25128;DHT22;13107;51.304;6.866;2022-10-31T13:52:43;19.30;99.90
25128;DHT22;13107;51.304;6.866;2022-10-31T13:56:49;19.30;99.90
25128;DHT22;13107;51.304;6.866;2022-10-31T14:05:27;19.50;99.90
25128;DHT22;13107;51.304;6.866;2022-10-31T14:13:44;19.50;99.90
25128;DHT22;13107;51.304;6.866;2022-10-31T14:17:56;19.20;99.90
25128;DHT22;13107;51.304;6.866;2022-10-31T14:21:59;19.20;99.90
25128;DHT22;13107;51.304;6.866;2022-10-31T14:30:30;19.00;99.90
25128;DHT22;13107;51.304;6.866;2022-10-31T14:34:52;19.00;99.90
25128;DHT22;13107;51.304;6.866;2022-10-31T14:39:02;19.00;99.90
25128;DHT22;13107;51.304;6.866;2022-10-31T14:43:34;18.90;99.90
25128;DHT22;13107;51.304;6.866;2022-10-31T14:51:57;18.70;99.90
25128;DHT22;13107;51.304;6.866;2022-10-31T14:56:00;18.70;99.90
25128;DHT22;13107;51.304;6.866;2022-10-31T15:00:07;18.50;99.90
25128;DHT22;13107;51.304;6.866;2022-10-31T15:04:23;18.50;99.90
25128;DHT22;13107;51.304;6.866;2022-10-31T15:08:39;18.30;99.90
25128;DHT22;13107;51.304;6.866;2022-10-31T15:12:41;18.20;99.90
25128;DHT22;13107;51.304;6.866;2022-10-31T15:16:43;18.20;99.90
25128;DHT22;13107;51.304;6.866;2022-10-31T15:20:45;18.10;99.90
25128;DHT22;13107;51.304;6.866;2022-10-31T15:24:48;18.00;99.90
25128;DHT22;13107;51.304;6.866;2022-10-31T15:29:15;18.00;99.90
25128;DHT22;13107;51.304;6.866;2022-10-31T15:33:25;17.80;99.90
25128;DHT22;13107;51.304;6.866;2022-10-31T15:37:27;17.70;99.90
25128;DHT22;13107;51.304;6.866;2022-10-31T15:41:32;17.70;99.90
25128;DHT22;13107;51.304;6.866;2022-10-31T15:45:34;17.50;99.90
25128;DHT22;13107;51.304;6.866;2022-10-31T15:49:40;17.50;99.90
25128;DHT22;13107;51.304;6.866;2022-10-31T15:53:48;17.50;99.90
25128;DHT22;13107;51.304;6.866;2022-10-31T15:57:57;17.50;99.90
25128;DHT22;13107;51.304;6.866;2022-10-31T16:02:02;17.30;99.90
25128;DHT22;13107;51.304;6.866;2022-10-31T16:06:05;17.30;99.90
25128;DHT22;13107;51.304;6.866;2022-10-31T16:10:23;17.20;99.90
25128;DHT22;13107;51.304;6.866;2022-10-31T16:14:31;17.20;99.90
25128;DHT22;13107;51.304;6.866;2022-10-31T16:18:36;17.20;99.90
25128;DHT22;13107;51.304;6.866;2022-10-31T16:22:39;17.20;99.90
25128;DHT22;13107;51.304;6.866;2022-10-31T16:26:41;17.20;99.90
25128;DHT22;13107;51.304;6.866;2022-10-31T16:30:45;17.20;99.90
25128;DHT22;13107;51.304;6.866;2022-10-31T16:35:21;17.10;99.90
25128;DHT22;13107;51.304;6.866;2022-10-31T16:39:19;17.10;99.90
25128;DHT22;13107;51.304;6.866;2022-10-31T16:43:21;17.10;99.90
25128;DHT22;13107;51.304;6.866;2022-10-31T16:47:24;17.00;99.90
25128;DHT22;13107;51.304;6.866;2022-10-31T16:51:29;17.10;99.90
25128;DHT22;13107;51.304;6.866;2022-10-31T16:55:31;17.00;99.90
25128;DHT22;13107;51.304;6.866;2022-10-31T16:59:36;17.00;99.90
25128;DHT22;13107;51.304;6.866;2022-10-31T17:03:38;17.00;99.90
25128;DHT22;13107;51.304;6.866;2022-10-31T17:07:40;17.10;99.90
25128;DHT22;13107;51.304;6.866;2022-10-31T17:11:46;17.00;99.90
25128;DHT22;13107;51.304;6.866;2022-10-31T17:15:58;17.10;99.90
25128;DHT22;13107;51.304;6.866;2022-10-31T17:20:00;17.20;99.90
25128;DHT22;13107;51.304;6.866;2022-10-31T17:24:02;17.20;99.90
25128;DHT22;13107;51.304;6.866;2022-10-31T17:28:04;17.20;99.90
25128;DHT22;13107;51.304;6.866;2022-10-31T17:32:06;17.20;99.90
25128;DHT22;13107;51.304;6.866;2022-10-31T17:36:07;17.20;99.90
25128;DHT22;13107;51.304;6.866;2022-10-31T17:40:11;17.30;99.90
25128;DHT22;13107;51.304;6.866;2022-10-31T17:44:12;17.30;99.90
25128;DHT22;13107;51.304;6.866;2022-10-31T17:48:14;17.40;99.90
25128;DHT22;13107;51.304;6.866;2022-10-31T17:52:16;17.40;99.90
25128;DHT22;13107;51.304;6.866;2022-10-31T17:56:17;17.20;99.90
25128;DHT22;13107;51.304;6.866;2022-10-31T18:00:19;17.30;99.90
25128;DHT22;13107;51.304;6.866;2022-10-31T18:04:22;17.20;99.90
25128;DHT22;13107;51.304;6.866;2022-10-31T18:08:29;17.20;99.90
25128;DHT22;13107;51.304;6.866;2022-10-31T18:12:34;17.20;99.90
25128;DHT22;13107;51.304;6.866;2022-10-31T18:16:36;17.10;99.90
25128;DHT22;13107;51.304;6.866;2022-10-31T18:20:38;17.00;99.90
25128;DHT22;13107;51.304;6.866;2022-10-31T18:24:41;16.80;99.90
25128;DHT22;13107;51.304;6.866;2022-10-31T18:28:42;16.70;99.90
25128;DHT22;13107;51.304;6.866;2022-10-31T18:32:44;16.50;99.90
25128;DHT22;13107;51.304;6.866;2022-10-31T18:36:49;16.30;99.90
25128;DHT22;13107;51.304;6.866;2022-10-31T18:40:51;16.20;99.90
25128;DHT22;13107;51.304;6.866;2022-10-31T18:44:52;16.10;99.90
25128;DHT22;13107;51.304;6.866;2022-10-31T18:48:54;16.20;99.90
25128;DHT22;13107;51.304;6.866;2022-10-31T18:52:56;16.20;99.90
25128;DHT22;13107;51.304;6.866;2022-10-31T18:56:57;16.10;99.90
25128;DHT22;13107;51.304;6.866;2022-10-31T19:01:03;16.00;99.90
25128;DHT22;13107;51.304;6.866;2022-10-31T19:05:06;16.00;99.90
25128;DHT22;13107;51.304;6.866;2022-10-31T19:09:07;16.00;99.90
25128;DHT22;13107;51.304;6.866;2022-10-31T19:13:10;16.00;99.90
25128;DHT22;13107;51.304;6.866;2022-10-31T19:17:11;15.90;99.90
25128;DHT22;13107;51.304;6.866;2022-10-31T19:21:16;15.90;99.90
25128;DHT22;13107;51.304;6.866;2022-10-31T19:25:18;15.80;99.90
25128;DHT22;13107;51.304;6.866;2022-10-31T19:29:19;15.60;99.90
25128;DHT22;13107;51.304;6.866;2022-10-31T19:33:21;15.50;99.90
25128;DHT22;13107;51.304;6.866;2022-10-31T19:37:23;15.50;99.90
25128;DHT22;13107;51.304;6.866;2022-10-31T19:41:26;15.50;99.90
25128;DHT22;13107;51.304;6.866;2022-10-31T19:45:28;15.60;99.90
25128;DHT22;13107;51.304;6.866;2022-10-31T19:49:29;15.70;99.90
25128;DHT22;13107;51.304;6.866;2022-10-31T19:53:32;15.80;99.90
25128;DHT22;13107;51.304;6.866;2022-10-31T19:57:33;15.90;99.90
25128;DHT22;13107;51.304;6.866;2022-10-31T20:01:57;15.90;99.90
25128;DHT22;13107;51.304;6.866;2022-10-31T20:06:01;15.90;99.90
25128;DHT22;13107;51.304;6.866;2022-10-31T20:10:04;15.90;99.90
25128;DHT22;13107;51.304;6.866;2022-10-31T20:14:07;15.90;99.90
25128;DHT22;13107;51.304;6.866;2022-10-31T20:18:09;16.00;99.90
25128;DHT22;13107;51.304;6.866;2022-10-31T20:22:11;16.10;99.90
25128;DHT22;13107;51.304;6.866;2022-10-31T20:26:15;16.10;99.90
25128;DHT22;13107;51.304;6.866;2022-10-31T20:30:17;16.10;99.90
25128;DHT22;13107;51.304;6.866;2022-10-31T20:34:19;16.20;99.90
25128;DHT22;13107;51.304;6.866;2022-10-31T20:38:20;16.10;99.90
25128;DHT22;13107;51.304;6.866;2022-10-31T20:42:22;16.30;99.90
25128;DHT22;13107;51.304;6.866;2022-10-31T20:46:25;16.40;99.90
25128;DHT22;13107;51.304;6.866;2022-10-31T20:50:27;16.40;99.90
25128;DHT22;13107;51.304;6.866;2022-10-31T20:54:29;16.40;99.90
25128;DHT22;13107;51.304;6.866;2022-10-31T20:58:31;16.30;99.90
25128;DHT22;13107;51.304;6.866;2022-10-31T21:02:33;16.30;99.90
25128;DHT22;13107;51.304;6.866;2022-10-31T21:06:35;16.30;99.90
25128;DHT22;13107;51.304;6.866;2022-10-31T21:10:38;16.40;99.90
25128;DHT22;13107;51.304;6.866;2022-10-31T21:14:39;16.40;99.90
25128;DHT22;13107;51.304;6.866;2022-10-31T21:18:43;16.40;99.90
25128;DHT22;13107;51.304;6.866;2022-10-31T21:22:45;16.40;99.90
25128;DHT22;13107;51.304;6.866;2022-10-31T21:26:49;16.40;99.90
25128;DHT22;13107;51.304;6.866;2022-10-31T21:30:51;16.40;99.90
25128;DHT22;13107;51.304;6.866;2022-10-31T21:34:53;16.30;99.90
25128;DHT22;13107;51.304;6.866;2022-10-31T21:38:55;16.30;99.90
25128;DHT22;13107;51.304;6.866;2022-10-31T21:42:57;16.30;99.90
25128;DHT22;13107;51.304;6.866;2022-10-31T21:46:59;16.30;99.90
25128;DHT22;13107;51.304;6.866;2022-10-31T21:51:04;16.40;99.90
25128;DHT22;13107;51.304;6.866;2022-10-31T21:55:06;16.40;99.90
25128;DHT22;13107;51.304;6.866;2022-10-31T21:59:08;16.20;99.90
25128;DHT22;13107;51.304;6.866;2022-10-31T22:03:10;16.30;99.90
25128;DHT22;13107;51.304;6.866;2022-10-31T22:07:12;16.20;99.90
25128;DHT22;13107;51.304;6.866;2022-10-31T22:11:15;16.20;99.90
25128;DHT22;13107;51.304;6.866;2022-10-31T22:15:17;16.20;99.90
25128;DHT22;13107;51.304;6.866;2022-10-31T22:19:23;16.00;99.90
25128;DHT22;13107;51.304;6.866;2022-10-31T22:23:24;16.10;99.90
25128;DHT22;13107;51.304;6.866;2022-10-31T22:27:26;15.90;99.90
25128;DHT22;13107;51.304;6.866;2022-10-31T22:31:29;16.00;99.90
25128;DHT22;13107;51.304;6.866;2022-10-31T22:35:32;16.00;99.90
25128;DHT22;13107;51.304;6.866;2022-10-31T22:39:34;15.90;99.90
25128;DHT22;13107;51.304;6.866;2022-10-31T22:43:36;15.90;99.90
25128;DHT22;13107;51.304;6.866;2022-10-31T22:47:39;15.80;99.90
25128;DHT22;13107;51.304;6.866;2022-10-31T22:51:49;15.90;99.90
25128;DHT22;13107;51.304;6.866;2022-10-31T22:55:50;15.90;99.90
25128;DHT22;13107;51.304;6.866;2022-10-31T22:59:52;16.00;99.90
25128;DHT22;13107;51.304;6.866;2022-10-31T23:03:54;16.00;99.90
25128;DHT22;13107;51.304;6.866;2022-10-31T23:07:56;15.90;99.90
25128;DHT22;13107;51.304;6.866;2022-10-31T23:11:58;16.00;99.90
25128;DHT22;13107;51.304;6.866;2022-10-31T23:16:19;16.00;99.90
25128;DHT22;13107;51.304;6.866;2022-10-31T23:20:21;16.10;99.90
25128;DHT22;13107;51.304;6.866;2022-10-31T23:28:26;16.40;99.90
25128;DHT22;13107;51.304;6.866;2022-10-31T23:36:29;16.40;99.90
25128;DHT22;13107;51.304;6.866;2022-10-31T23:40:30;16.30;99.90
25128;DHT22;13107;51.304;6.866;2022-10-31T23:44:32;16.40;99.90
25128;DHT22;13107;51.304;6.866;2022-10-31T23:48:34;16.50;99.90
25128;DHT22;13107;51.304;6.866;2022-10-31T23:52:35;16.50;99.90
25128;DHT22;13107;51.304;6.866;2022-10-31T23:56:37;16.40;99.90
